createdAt,value
2023-03-06T00:01:10.599Z,97045.16
2023-03-06T00:03:38.658Z,97048.29
2023-03-06T00:06:06.776Z,97048.81
2023-03-06T00:08:34.613Z,97050.10
2023-03-06T00:11:02.537Z,97048.34
2023-03-06T00:13:32.214Z,97046.01
2023-03-06T00:16:03.012Z,97048.05
2023-03-06T00:18:30.957Z,97045.30
2023-03-06T00:20:59.019Z,97040.23
2023-03-06T00:23:27.704Z,97042.10
2023-03-06T00:25:55.807Z,97040.68
2023-03-06T00:28:23.675Z,97035.06
2023-03-06T00:30:51.641Z,97032.76
2023-03-06T00:33:19.587Z,97032.14
2023-03-06T00:35:47.540Z,97031.92
2023-03-06T00:38:15.692Z,97032.80
2023-03-06T00:40:43.553Z,97035.26
2023-03-06T00:43:12.355Z,97033.94
2023-03-06T00:45:40.288Z,97030.45
2023-03-06T00:48:09.640Z,97028.94
2023-03-06T00:50:37.657Z,97026.34
2023-03-06T00:53:05.591Z,97020.48
2023-03-06T00:55:33.580Z,97020.16
2023-03-06T00:58:01.637Z,97019.44
2023-03-06T01:00:29.529Z,97018.41
2023-03-06T01:02:57.480Z,97018.55
2023-03-06T01:05:25.671Z,97022.09
2023-03-06T01:07:53.888Z,97019.09
2023-03-06T01:10:21.775Z,97020.12
2023-03-06T01:12:49.654Z,97021.13
2023-03-06T01:15:20.097Z,97016.46
2023-03-06T01:17:48.413Z,97014.52
2023-03-06T01:20:17.439Z,97013.42
2023-03-06T01:22:45.662Z,97013.84
2023-03-06T01:25:13.640Z,97013.46
2023-03-06T01:27:41.555Z,97012.73
2023-03-06T01:30:12.058Z,97012.35
2023-03-06T01:32:40.056Z,97008.46
2023-03-06T01:35:08.373Z,97004.39
2023-03-06T01:37:36.663Z,97002.11
2023-03-06T01:40:04.797Z,96998.77
2023-03-06T01:42:32.798Z,96998.51
2023-03-06T01:45:26.605Z,96999.67
2023-03-06T01:47:54.436Z,97000.62
2023-03-06T01:50:22.412Z,97003.32
2023-03-06T01:52:56.340Z,97005.09
2023-03-06T01:55:30.987Z,97012.46
2023-03-06T01:58:00.900Z,97015.70
2023-03-06T02:00:29.600Z,97018.34
2023-03-06T02:02:57.571Z,97017.20
2023-03-06T02:05:25.544Z,97018.84
2023-03-06T02:07:54.330Z,97019.94
2023-03-06T02:10:22.308Z,97020.70
2023-03-06T02:12:50.998Z,97021.96
2023-03-06T02:15:20.488Z,97020.17
2023-03-06T02:17:49.894Z,97016.95
2023-03-06T02:20:20.722Z,97018.20
2023-03-06T02:22:51.412Z,97016.38
2023-03-06T02:25:28.522Z,97018.70
2023-03-06T02:27:57.151Z,97021.12
2023-03-06T02:30:26.765Z,97023.13
2023-03-06T02:32:55.327Z,97021.70
2023-03-06T02:35:25.471Z,97021.92
2023-03-06T02:37:53.730Z,97022.23
2023-03-06T02:40:22.268Z,97024.42
2023-03-06T02:42:58.328Z,97027.67
2023-03-06T02:45:35.741Z,97027.32
2023-03-06T02:48:04.113Z,97028.91
2023-03-06T02:50:32.515Z,97030.11
2023-03-06T02:53:02.179Z,97031.95
2023-03-06T02:55:31.934Z,97031.86
2023-03-06T02:58:00.141Z,97034.66
2023-03-06T03:00:28.190Z,97034.64
2023-03-06T03:02:56.139Z,97034.91
2023-03-06T03:05:24.045Z,97031.84
2023-03-06T03:07:57.765Z,97035.06
2023-03-06T03:10:26.097Z,97033.23
2023-03-06T03:12:54.077Z,97035.23
2023-03-06T03:15:22.339Z,97032.95
2023-03-06T03:17:50.436Z,97031.16
2023-03-06T03:20:19.830Z,97027.38
2023-03-06T03:22:49.112Z,97024.55
2023-03-06T03:25:17.156Z,97026.10
2023-03-06T03:27:45.734Z,97021.06
2023-03-06T03:30:13.930Z,97019.31
2023-03-06T03:32:41.927Z,97020.10
2023-03-06T03:35:11.176Z,97022.02
2023-03-06T03:37:39.235Z,97019.25
2023-03-06T03:40:08.012Z,97020.06
2023-03-06T03:42:35.908Z,97020.02
2023-03-06T03:45:04.854Z,97020.42
2023-03-06T03:47:32.854Z,97019.65
2023-03-06T03:50:01.465Z,97022.91
2023-03-06T03:52:29.442Z,97021.27
2023-03-06T03:54:57.845Z,97020.04
2023-03-06T03:57:26.253Z,97021.78
2023-03-06T03:59:54.553Z,97022.27
2023-03-06T04:02:30.553Z,97021.73
2023-03-06T04:05:05.161Z,97024.19
2023-03-06T04:07:33.221Z,97027.53
2023-03-06T04:10:01.331Z,97028.16
2023-03-06T04:12:30.142Z,97028.89
2023-03-06T04:14:58.238Z,97028.81
2023-03-06T04:17:27.116Z,97031.02
2023-03-06T04:19:55.199Z,97034.50
2023-03-06T04:22:23.631Z,97031.55
2023-03-06T04:24:51.660Z,97029.33
2023-03-06T04:27:20.718Z,97030.02
2023-03-06T04:29:48.939Z,97028.88
2023-03-06T04:32:17.355Z,97029.52
2023-03-06T04:34:45.875Z,97030.36
2023-03-06T04:37:24.355Z,97030.70
2023-03-06T04:39:52.927Z,97029.09
2023-03-06T04:42:20.874Z,97029.60
2023-03-06T04:44:48.773Z,97035.45
2023-03-06T04:47:19.044Z,97033.45
2023-03-06T04:49:47.193Z,97032.94
2023-03-06T04:52:15.585Z,97033.86
2023-03-06T04:54:43.477Z,97034.41
2023-03-06T04:57:11.573Z,97035.65
2023-03-06T04:59:39.392Z,97038.13
2023-03-06T05:02:07.275Z,97042.02
2023-03-06T05:04:35.200Z,97043.64
2023-03-06T05:07:03.141Z,97044.91
2023-03-06T05:09:30.979Z,97045.08
2023-03-06T05:11:58.904Z,97047.04
2023-03-06T05:14:28.954Z,97048.72
2023-03-06T05:16:57.261Z,97051.73
2023-03-06T05:19:25.244Z,97055.80
2023-03-06T05:21:53.148Z,97055.27
2023-03-06T05:24:21.072Z,97058.04
2023-03-06T05:26:48.965Z,97060.59
2023-03-06T05:29:16.835Z,97064.39
2023-03-06T05:31:44.893Z,97065.05
2023-03-06T05:34:16.620Z,97063.27
2023-03-06T05:36:44.646Z,97064.02
2023-03-06T05:39:12.545Z,97064.05
2023-03-06T05:41:40.489Z,97071.67
2023-03-06T05:44:08.547Z,97075.66
2023-03-06T05:46:37.795Z,97072.80
2023-03-06T05:49:05.753Z,97068.48
2023-03-06T05:51:33.688Z,97067.14
2023-03-06T05:54:01.599Z,97073.30
2023-03-06T05:56:29.453Z,97078.10
2023-03-06T05:58:57.257Z,97083.10
2023-03-06T06:01:25.505Z,97078.98
2023-03-06T06:03:53.512Z,97082.48
2023-03-06T06:06:21.361Z,97082.70
2023-03-06T06:08:49.263Z,97085.53
2023-03-06T06:11:18.516Z,97090.27
2023-03-06T06:13:47.597Z,97094.20
2023-03-06T06:16:16.690Z,97092.11
2023-03-06T06:18:45.341Z,97094.08
2023-03-06T06:21:14.550Z,97099.41
2023-03-06T06:23:42.392Z,97100.05
2023-03-06T06:26:10.400Z,97099.86
2023-03-06T06:28:38.221Z,97097.82
2023-03-06T06:31:10.600Z,97098.38
2023-03-06T06:33:39.499Z,97096.27
2023-03-06T06:36:15.320Z,97096.89
2023-03-06T06:38:43.627Z,97096.11
2023-03-06T06:41:35.982Z,97096.80
2023-03-06T06:43:59.391Z,97100.19
2023-03-06T06:47:10.816Z,97104.73
2023-03-06T06:49:15.947Z,97105.70
2023-03-06T06:51:44.372Z,97107.16
2023-03-06T06:54:12.493Z,97109.14
2023-03-06T06:56:40.385Z,97111.47
2023-03-06T06:59:16.465Z,97108.33
2023-03-06T07:01:45.371Z,97111.09
2023-03-06T07:04:13.953Z,97109.96
2023-03-06T07:06:42.830Z,97109.81
2023-03-06T07:09:12.078Z,97109.33
2023-03-06T07:11:40.575Z,97108.64
2023-03-06T07:14:08.541Z,97112.85
2023-03-06T07:16:36.457Z,97115.17
2023-03-06T07:19:04.495Z,97120.46
2023-03-06T07:21:32.819Z,97122.73
2023-03-06T07:24:00.766Z,97126.52
2023-03-06T07:26:28.703Z,97126.50
2023-03-06T07:28:56.681Z,97130.34
2023-03-06T07:31:26.761Z,97131.45
2023-03-06T07:33:55.146Z,97131.17
2023-03-06T07:36:24.376Z,97135.08
2023-03-06T07:38:52.181Z,97138.38
2023-03-06T07:41:22.468Z,97142.39
2023-03-06T07:43:50.673Z,97144.23
2023-03-06T07:46:19.449Z,97144.27
2023-03-06T07:48:47.539Z,97142.67
2023-03-06T07:51:17.105Z,97146.35
2023-03-06T07:53:45.593Z,97149.30
2023-03-06T07:56:13.810Z,97147.55
2023-03-06T07:58:43.077Z,97152.43
2023-03-06T08:01:15.769Z,97153.20
2023-03-06T08:03:43.660Z,97153.48
2023-03-06T08:06:11.552Z,97154.96
2023-03-06T08:08:40.696Z,97150.05
2023-03-06T08:11:09.461Z,97150.17
2023-03-06T08:13:37.390Z,97151.84
2023-03-06T08:16:06.255Z,97151.52
2023-03-06T08:18:34.236Z,97152.16
2023-03-06T08:21:05.274Z,97154.95
2023-03-06T08:23:33.921Z,97150.22
2023-03-06T08:26:03.394Z,97152.31
2023-03-06T08:28:31.382Z,97153.67
2023-03-06T08:30:59.293Z,97152.82
2023-03-06T08:33:28.148Z,97150.70
2023-03-06T08:35:55.977Z,97155.60
2023-03-06T08:38:23.955Z,97155.75
2023-03-06T08:40:51.936Z,97155.06
2023-03-06T08:43:19.839Z,97158.64
2023-03-06T08:45:54.288Z,97159.23
2023-03-06T08:48:22.343Z,97159.09
2023-03-06T08:50:50.678Z,97156.17
2023-03-06T08:53:19.028Z,97156.30
2023-03-06T08:55:47.211Z,97161.33
2023-03-06T08:58:15.189Z,97154.80
2023-03-06T09:00:43.085Z,97156.17
2023-03-06T09:03:11.244Z,97157.02
2023-03-06T09:05:40.241Z,97156.86
2023-03-06T09:08:08.208Z,97153.16
2023-03-06T09:10:36.209Z,97154.91
2023-03-06T09:13:04.119Z,97150.89
2023-03-06T09:15:32.013Z,97155.73
2023-03-06T09:18:00.002Z,97160.63
2023-03-06T09:20:28.317Z,97156.14
2023-03-06T09:22:56.349Z,97160.95
2023-03-06T09:25:25.224Z,97158.49
2023-03-06T09:28:08.727Z,97160.70
2023-03-06T09:30:39.942Z,97157.05
2023-03-06T09:33:08.273Z,97159.20
2023-03-06T09:35:36.285Z,97162.96
2023-03-06T09:38:04.157Z,97162.86
2023-03-06T09:40:50.529Z,97162.41
2023-03-06T09:43:20.812Z,97161.45
2023-03-06T09:45:48.698Z,97160.45
2023-03-06T09:48:16.792Z,97160.05
2023-03-06T09:50:46.475Z,97163.31
2023-03-06T09:53:17.357Z,97155.13
2023-03-06T09:55:58.686Z,97157.14
2023-03-06T09:58:27.702Z,97155.66
2023-03-06T10:01:04.790Z,97157.66
2023-03-06T10:03:36.743Z,97159.19
2023-03-06T10:06:23.668Z,97162.45
2023-03-06T10:09:03.740Z,97164.23
2023-03-06T10:11:36.059Z,97159.16
2023-03-06T10:14:26.609Z,97154.98
2023-03-06T10:16:55.174Z,97155.08
2023-03-06T10:19:23.614Z,97155.77
2023-03-06T10:21:54.600Z,97155.48
2023-03-06T10:24:41.187Z,97152.36
2023-03-06T10:27:09.101Z,97146.05
2023-03-06T10:30:01.662Z,97142.29
2023-03-06T10:32:46.250Z,97134.64
2023-03-06T10:35:18.679Z,97137.67
2023-03-06T10:37:46.838Z,97138.31
2023-03-06T10:40:22.035Z,97130.00
2023-03-06T10:42:58.704Z,97121.39
2023-03-06T10:45:47.282Z,97122.42
2023-03-06T10:48:21.635Z,97123.36
2023-03-06T10:50:49.696Z,97122.98
2023-03-06T10:53:25.936Z,97115.80
2023-03-06T10:55:55.656Z,97111.92
2023-03-06T10:58:30.993Z,97108.23
2023-03-06T11:01:01.894Z,97104.67
2023-03-06T11:03:29.838Z,97101.21
2023-03-06T11:06:04.123Z,97107.02
2023-03-06T11:08:32.617Z,97099.02
2023-03-06T11:11:00.537Z,97085.88
2023-03-06T11:13:30.345Z,97087.19
2023-03-06T11:16:02.567Z,97083.77
2023-03-06T11:18:40.924Z,97086.05
2023-03-06T11:21:26.320Z,97084.59
2023-03-06T11:23:55.286Z,97083.17
2023-03-06T11:26:32.477Z,97085.03
2023-03-06T11:29:02.941Z,97082.02
2023-03-06T11:31:37.803Z,97076.86
2023-03-06T11:34:11.961Z,97076.92
2023-03-06T11:36:55.454Z,97075.63
2023-03-06T11:39:36.754Z,97066.36
2023-03-06T11:42:13.524Z,97059.21
2023-03-06T11:44:41.421Z,97059.70
2023-03-06T11:47:22.752Z,97057.26
2023-03-06T11:49:53.838Z,97054.81
2023-03-06T11:52:43.114Z,97060.31
2023-03-06T11:55:15.313Z,97058.40
2023-03-06T11:57:50.495Z,97053.48
2023-03-06T12:00:27.844Z,97046.48
2023-03-06T12:03:14.208Z,97044.34
2023-03-06T12:05:52.507Z,97043.19
2023-03-06T12:08:28.781Z,97041.25
2023-03-06T12:11:15.049Z,97037.38
2023-03-06T12:13:59.001Z,97038.27
2023-03-06T12:16:35.143Z,97040.91
2023-03-06T12:19:13.483Z,97040.43
2023-03-06T12:21:47.765Z,97038.99
2023-03-06T12:24:15.608Z,97040.40
2023-03-06T12:26:46.293Z,97037.21
2023-03-06T12:29:16.993Z,97032.08
2023-03-06T12:32:01.013Z,97034.11
2023-03-06T12:34:31.795Z,97029.98
2023-03-06T12:37:15.225Z,97031.04
2023-03-06T12:39:55.553Z,97030.96
2023-03-06T12:42:32.435Z,97030.04
2023-03-06T12:45:00.532Z,97027.90
2023-03-06T12:47:29.503Z,97020.28
2023-03-06T12:50:01.572Z,97011.89
2023-03-06T12:52:31.425Z,97010.86
2023-03-06T12:55:00.845Z,97009.80
2023-03-06T12:57:29.986Z,97009.30
2023-03-06T12:59:57.963Z,97005.50
2023-03-06T13:02:41.240Z,97000.76
2023-03-06T13:05:24.201Z,96998.38
2023-03-06T13:07:52.861Z,96995.05
2023-03-06T13:10:26.881Z,96998.91
2023-03-06T13:12:57.611Z,96996.92
2023-03-06T13:15:35.419Z,96987.16
2023-03-06T13:18:21.715Z,96982.98
2023-03-06T13:20:50.840Z,96981.64
2023-03-06T13:23:34.994Z,96981.41
2023-03-06T13:26:04.330Z,96974.76
2023-03-06T13:28:38.231Z,96967.69
2023-03-06T13:31:10.636Z,96965.52
2023-03-06T13:33:43.294Z,96962.61
2023-03-06T13:36:20.286Z,96959.20
2023-03-06T13:38:51.634Z,96960.19
2023-03-06T13:41:22.661Z,96959.41
2023-03-06T13:43:51.965Z,96954.34
2023-03-06T13:46:25.021Z,96953.28
2023-03-06T13:49:08.094Z,96952.14
2023-03-06T13:51:40.311Z,96949.73
2023-03-06T13:54:26.953Z,96951.10
2023-03-06T13:57:15.058Z,96949.45
2023-03-06T14:00:08.255Z,96946.20
2023-03-06T14:02:56.163Z,96948.57
2023-03-06T14:05:24.550Z,96944.91
2023-03-06T14:08:04.339Z,96944.01
2023-03-06T14:10:34.739Z,96944.21
2023-03-06T14:13:02.985Z,96946.81
2023-03-06T14:15:42.985Z,96944.03
2023-03-06T14:18:14.634Z,96946.76
2023-03-06T14:20:44.117Z,96945.98
2023-03-06T14:23:16.599Z,96939.15
2023-03-06T14:25:46.474Z,96936.59
2023-03-06T14:28:24.560Z,96932.41
2023-03-06T14:30:53.128Z,96934.14
2023-03-06T14:33:27.343Z,96930.10
2023-03-06T14:35:56.674Z,96929.42
2023-03-06T14:38:24.892Z,96933.17
2023-03-06T14:40:52.878Z,96934.27
2023-03-06T14:43:24.947Z,96932.53
2023-03-06T14:45:58.810Z,96932.71
2023-03-06T14:48:38.498Z,96932.39
2023-03-06T14:51:07.945Z,96930.27
2023-03-06T14:53:35.956Z,96927.41
2023-03-06T14:56:06.311Z,96925.77
2023-03-06T14:58:34.244Z,96923.55
2023-03-06T15:01:04.889Z,96925.06
2023-03-06T15:03:44.083Z,96922.71
2023-03-06T15:06:16.714Z,96920.15
2023-03-06T15:08:46.558Z,96917.97
2023-03-06T15:11:14.454Z,96919.01
2023-03-06T15:13:42.433Z,96918.86
2023-03-06T15:16:13.154Z,96914.92
2023-03-06T15:18:54.103Z,96912.52
2023-03-06T15:21:22.804Z,96913.36
2023-03-06T15:23:51.720Z,96910.57
2023-03-06T15:26:22.499Z,96912.03
2023-03-06T15:29:06.984Z,96908.04
2023-03-06T15:31:38.174Z,96909.89
2023-03-06T15:34:06.259Z,96912.08
2023-03-06T15:36:35.458Z,96912.08
2023-03-06T15:39:23.252Z,96913.83
2023-03-06T15:41:56.109Z,96913.17
2023-03-06T15:44:24.020Z,96915.17
2023-03-06T15:46:59.243Z,96914.65
2023-03-06T15:49:36.393Z,96912.91
2023-03-06T15:52:04.537Z,96911.62
2023-03-06T15:54:33.105Z,96910.23
2023-03-06T15:57:02.773Z,96908.80
2023-03-06T15:59:33.157Z,96904.61
2023-03-06T16:02:04.025Z,96901.89
2023-03-06T16:04:31.943Z,96900.02
2023-03-06T16:06:59.937Z,96908.30
2023-03-06T16:09:27.840Z,96909.63
2023-03-06T16:11:55.804Z,96908.53
2023-03-06T16:14:24.102Z,96906.41
2023-03-06T16:16:54.278Z,96908.80
2023-03-06T16:19:27.093Z,96908.41
2023-03-06T16:21:55.982Z,96907.85
2023-03-06T16:24:26.247Z,96907.48
2023-03-06T16:26:55.044Z,96908.88
2023-03-06T16:29:26.480Z,96908.42
2023-03-06T16:31:55.424Z,96910.04
2023-03-06T16:34:23.904Z,96912.96
2023-03-06T16:36:51.842Z,96908.73
2023-03-06T16:39:21.196Z,96910.23
2023-03-06T16:41:51.878Z,96916.43
2023-03-06T16:44:20.503Z,96914.65
2023-03-06T16:46:49.738Z,96912.09
2023-03-06T16:49:19.326Z,96914.23
2023-03-06T16:51:47.205Z,96919.30
2023-03-06T16:54:15.111Z,96921.34
2023-03-06T16:56:43.030Z,96922.37
2023-03-06T16:59:11.140Z,96922.69
2023-03-06T17:01:40.615Z,96922.55
2023-03-06T17:04:08.661Z,96922.99
2023-03-06T17:06:36.600Z,96920.98
2023-03-06T17:09:04.889Z,96919.85
2023-03-06T17:11:32.836Z,96916.62
2023-03-06T17:14:01.519Z,96918.60
2023-03-06T17:16:29.430Z,96915.58
2023-03-06T17:18:58.443Z,96920.26
2023-03-06T17:21:27.230Z,96916.63
2023-03-06T17:23:55.601Z,96917.95
2023-03-06T17:26:23.560Z,96916.62
2023-03-06T17:28:51.526Z,96912.89
2023-03-06T17:31:21.370Z,96911.42
2023-03-06T17:33:49.654Z,96913.18
2023-03-06T17:36:19.469Z,96913.41
2023-03-06T17:38:47.659Z,96915.18
2023-03-06T17:41:15.515Z,96910.20
2023-03-06T17:43:43.338Z,96907.56
2023-03-06T17:46:12.779Z,96904.13
2023-03-06T17:48:40.898Z,96906.83
2023-03-06T17:51:09.382Z,96903.66
2023-03-06T17:53:37.354Z,96904.58
2023-03-06T17:56:09.666Z,96904.87
2023-03-06T17:58:37.537Z,96905.30
2023-03-06T18:01:11.596Z,96903.02
2023-03-06T18:03:39.924Z,96903.69
2023-03-06T18:06:09.554Z,96902.27
2023-03-06T18:08:38.206Z,96901.33
2023-03-06T18:11:07.174Z,96901.11
2023-03-06T18:13:36.173Z,96903.27
2023-03-06T18:16:04.813Z,96904.16
2023-03-06T18:18:33.024Z,96902.27
2023-03-06T18:21:08.039Z,96901.79
2023-03-06T18:23:36.409Z,96897.59
2023-03-06T18:26:11.857Z,96895.73
2023-03-06T18:28:42.660Z,96891.17
2023-03-06T18:31:14.683Z,96886.66
2023-03-06T18:33:42.734Z,96885.26
2023-03-06T18:36:10.999Z,96882.52
2023-03-06T18:38:40.265Z,96882.84
2023-03-06T18:41:08.666Z,96885.99
2023-03-06T18:43:37.276Z,96882.65
2023-03-06T18:46:05.739Z,96877.21
2023-03-06T18:48:33.626Z,96876.91
2023-03-06T18:51:05.941Z,96873.84
2023-03-06T18:53:34.168Z,96878.42
2023-03-06T18:56:02.668Z,96879.63
2023-03-06T18:58:30.544Z,96879.33
2023-03-06T19:00:59.830Z,96879.89
2023-03-06T19:03:28.041Z,96873.91
2023-03-06T19:05:55.971Z,96871.63
2023-03-06T19:08:24.959Z,96870.42
2023-03-06T19:10:52.955Z,96871.29
2023-03-06T19:13:20.868Z,96872.09
2023-03-06T19:15:49.208Z,96870.14
2023-03-06T19:18:18.164Z,96871.84
2023-03-06T19:20:46.287Z,96873.67
2023-03-06T19:23:14.277Z,96868.27
2023-03-06T19:25:42.278Z,96862.36
2023-03-06T19:28:10.143Z,96862.17
2023-03-06T19:30:39.921Z,96860.36
2023-03-06T19:33:07.811Z,96857.92
2023-03-06T19:35:35.991Z,96853.46
2023-03-06T19:38:03.935Z,96852.79
2023-03-06T19:40:31.806Z,96854.26
2023-03-06T19:42:59.659Z,96849.64
2023-03-06T19:45:27.537Z,96848.02
2023-03-06T19:48:00.656Z,96849.32
2023-03-06T19:50:29.724Z,96856.38
2023-03-06T19:52:57.837Z,96858.88
2023-03-06T19:55:26.449Z,96857.04
2023-03-06T19:57:54.554Z,96856.98
2023-03-06T20:00:22.542Z,96853.30
2023-03-06T20:02:50.535Z,96857.95
2023-03-06T20:05:18.493Z,96861.05
2023-03-06T20:07:46.342Z,96856.56
2023-03-06T20:10:14.382Z,96858.23
2023-03-06T20:12:42.265Z,96860.40
2023-03-06T20:15:10.533Z,96855.71
2023-03-06T20:17:40.603Z,96849.98
2023-03-06T20:20:09.296Z,96855.98
2023-03-06T20:22:37.207Z,96863.27
2023-03-06T20:25:05.464Z,96854.15
2023-03-06T20:27:33.542Z,96851.94
2023-03-06T20:30:01.556Z,96851.09
2023-03-06T20:32:29.512Z,96849.90
2023-03-06T20:34:57.373Z,96846.64
2023-03-06T20:37:25.199Z,96845.17
2023-03-06T20:39:53.173Z,96844.61
2023-03-06T20:42:21.090Z,96837.11
2023-03-06T20:44:48.891Z,96835.48
2023-03-06T20:47:17.274Z,96841.23
2023-03-06T20:49:45.107Z,96839.10
2023-03-06T20:52:13.012Z,96833.80
2023-03-06T20:54:40.874Z,96831.75
2023-03-06T20:57:08.853Z,96832.30
2023-03-06T20:59:37.322Z,96836.41
2023-03-06T21:02:05.262Z,96837.19
2023-03-06T21:04:33.169Z,96831.85
2023-03-06T21:07:01.052Z,96829.79
2023-03-06T21:09:28.956Z,96826.53
2023-03-06T21:11:56.928Z,96821.16
2023-03-06T21:14:24.837Z,96819.63
2023-03-06T21:16:52.810Z,96813.70
2023-03-06T21:19:20.774Z,96811.30
2023-03-06T21:21:48.747Z,96811.17
2023-03-06T21:24:16.730Z,96805.20
2023-03-06T21:26:44.744Z,96799.94
2023-03-06T21:29:12.592Z,96796.73
2023-03-06T21:31:41.059Z,96799.48
2023-03-06T21:34:10.660Z,96798.45
2023-03-06T21:36:38.494Z,96799.40
2023-03-06T21:39:06.516Z,96795.83
2023-03-06T21:41:34.503Z,96797.09
2023-03-06T21:44:03.622Z,96794.94
2023-03-06T21:46:31.956Z,96791.54
2023-03-06T21:49:01.366Z,96785.31
2023-03-06T21:51:29.268Z,96785.55
2023-03-06T21:53:57.247Z,96783.30
2023-03-06T21:56:25.627Z,96783.11
2023-03-06T21:58:54.283Z,96782.30
2023-03-06T22:01:24.253Z,96781.65
2023-03-06T22:03:52.630Z,96781.85
2023-03-06T22:06:21.901Z,96777.78
2023-03-06T22:08:49.926Z,96779.19
2023-03-06T22:11:19.128Z,96780.77
2023-03-06T22:13:48.174Z,96780.81
2023-03-06T22:16:16.953Z,96782.62
2023-03-06T22:18:45.715Z,96779.26
2023-03-06T22:21:14.751Z,96776.50
2023-03-06T22:23:43.001Z,96773.95
2023-03-06T22:26:12.864Z,96773.92
2023-03-06T22:28:41.418Z,96775.86
2023-03-06T22:31:14.073Z,96772.38
2023-03-06T22:33:42.063Z,96775.71
2023-03-06T22:36:11.720Z,96784.82
2023-03-06T22:38:41.011Z,96792.02
2023-03-06T22:41:09.323Z,96798.14
2023-03-06T22:43:37.231Z,96794.86
2023-03-06T22:46:06.533Z,96781.91
2023-03-06T22:48:34.708Z,96775.13
2023-03-06T22:51:03.861Z,96774.38
2023-03-06T22:53:31.937Z,96779.64
2023-03-06T22:56:00.598Z,96781.58
2023-03-06T22:58:34.237Z,96782.05
2023-03-06T23:01:06.161Z,96779.37
2023-03-06T23:03:35.265Z,96785.84
2023-03-06T23:06:29.362Z,96784.44
2023-03-06T23:08:58.693Z,96783.09
2023-03-06T23:11:30.306Z,96782.27
2023-03-06T23:14:17.418Z,96784.20
2023-03-06T23:17:04.920Z,96781.02
2023-03-06T23:19:51.373Z,96783.54
2023-03-06T23:22:37.717Z,96786.13
2023-03-06T23:25:24.331Z,96782.54
2023-03-06T23:27:52.373Z,96784.69
2023-03-06T23:30:20.255Z,96790.23
2023-03-06T23:32:48.288Z,96803.52
2023-03-06T23:35:16.192Z,96807.00
2023-03-06T23:37:44.184Z,96802.14
2023-03-06T23:40:13.732Z,96794.17
2023-03-06T23:42:41.530Z,96799.04
2023-03-06T23:45:09.717Z,96802.41
2023-03-06T23:47:37.655Z,96797.88
2023-03-06T23:50:06.503Z,96807.36
2023-03-06T23:52:34.371Z,96820.64
2023-03-06T23:55:02.287Z,96823.61
2023-03-06T23:57:30.751Z,96828.04
2023-03-06T23:59:58.790Z,96832.21
